sensor_id;sensor_type;location;lat;lon;timestamp;P1;durP1;ratioP1;P2;durP2;ratioP2
15486;SDS011;7845;53.698;10.078;2022-08-01T00:01:37;11.10;;;9.90;;
15486;SDS011;7845;53.698;10.078;2022-08-01T00:04:03;10.20;;;8.97;;
15486;SDS011;7845;53.698;10.078;2022-08-01T00:06:29;11.70;;;10.50;;
15486;SDS011;7845;53.698;10.078;2022-08-01T00:08:54;10.37;;;9.20;;
15486;SDS011;7845;53.698;10.078;2022-08-01T00:11:20;9.60;;;8.70;;
15486;SDS011;7845;53.698;10.078;2022-08-01T00:13:46;10.20;;;9.00;;
15486;SDS011;7845;53.698;10.078;2022-08-01T00:16:11;10.13;;;9.03;;
15486;SDS011;7845;53.698;10.078;2022-08-01T00:18:36;11.83;;;10.57;;
15486;SDS011;7845;53.698;10.078;2022-08-01T00:21:02;10.50;;;8.33;;
15486;SDS011;7845;53.698;10.078;2022-08-01T00:23:28;13.20;;;10.77;;
15486;SDS011;7845;53.698;10.078;2022-08-01T00:25:54;10.20;;;8.40;;
15486;SDS011;7845;53.698;10.078;2022-08-01T00:28:19;12.50;;;11.20;;
15486;SDS011;7845;53.698;10.078;2022-08-01T00:30:45;12.30;;;9.37;;
15486;SDS011;7845;53.698;10.078;2022-08-01T00:33:10;13.87;;;10.80;;
15486;SDS011;7845;53.698;10.078;2022-08-01T00:35:35;13.30;;;11.73;;
15486;SDS011;7845;53.698;10.078;2022-08-01T00:38:00;11.50;;;10.10;;
15486;SDS011;7845;53.698;10.078;2022-08-01T00:40:26;12.77;;;11.30;;
15486;SDS011;7845;53.698;10.078;2022-08-01T00:42:51;9.40;;;8.40;;
15486;SDS011;7845;53.698;10.078;2022-08-01T00:45:16;12.47;;;10.53;;
15486;SDS011;7845;53.698;10.078;2022-08-01T00:47:42;12.30;;;11.00;;
15486;SDS011;7845;53.698;10.078;2022-08-01T00:50:07;11.67;;;9.63;;
15486;SDS011;7845;53.698;10.078;2022-08-01T00:52:33;12.50;;;10.90;;
15486;SDS011;7845;53.698;10.078;2022-08-01T00:54:59;15.30;;;12.70;;
15486;SDS011;7845;53.698;10.078;2022-08-01T00:57:25;14.07;;;11.57;;
15486;SDS011;7845;53.698;10.078;2022-08-01T00:59:50;12.00;;;10.77;;
15486;SDS011;7845;53.698;10.078;2022-08-01T01:02:17;12.20;;;10.23;;
15486;SDS011;7845;53.698;10.078;2022-08-01T01:04:43;12.80;;;11.07;;
15486;SDS011;7845;53.698;10.078;2022-08-01T01:07:19;11.70;;;9.40;;
15486;SDS011;7845;53.698;10.078;2022-08-01T01:10:02;10.50;;;8.90;;
15486;SDS011;7845;53.698;10.078;2022-08-01T01:12:52;12.20;;;10.50;;
15486;SDS011;7845;53.698;10.078;2022-08-01T01:15:26;13.77;;;10.30;;
15486;SDS011;7845;53.698;10.078;2022-08-01T01:18:02;12.77;;;10.50;;
15486;SDS011;7845;53.698;10.078;2022-08-01T01:20:42;14.70;;;11.27;;
15486;SDS011;7845;53.698;10.078;2022-08-01T01:23:34;12.13;;;10.83;;
15486;SDS011;7845;53.698;10.078;2022-08-01T01:29:06;13.93;;;11.43;;
15486;SDS011;7845;53.698;10.078;2022-08-01T01:31:40;13.70;;;10.40;;
15486;SDS011;7845;53.698;10.078;2022-08-01T01:34:09;13.53;;;9.60;;
15486;SDS011;7845;53.698;10.078;2022-08-01T01:36:37;12.73;;;9.83;;
15486;SDS011;7845;53.698;10.078;2022-08-01T01:39:04;11.27;;;8.77;;
15486;SDS011;7845;53.698;10.078;2022-08-01T01:41:29;14.53;;;10.73;;
15486;SDS011;7845;53.698;10.078;2022-08-01T01:43:56;11.83;;;9.43;;
15486;SDS011;7845;53.698;10.078;2022-08-01T01:46:23;13.93;;;11.10;;
15486;SDS011;7845;53.698;10.078;2022-08-01T01:48:52;12.67;;;9.53;;
15486;SDS011;7845;53.698;10.078;2022-08-01T01:51:21;11.70;;;9.37;;
15486;SDS011;7845;53.698;10.078;2022-08-01T01:53:49;16.37;;;11.03;;
15486;SDS011;7845;53.698;10.078;2022-08-01T01:56:16;10.20;;;8.50;;
15486;SDS011;7845;53.698;10.078;2022-08-01T01:58:44;11.67;;;8.90;;
15486;SDS011;7845;53.698;10.078;2022-08-01T02:01:12;12.40;;;9.40;;
15486;SDS011;7845;53.698;10.078;2022-08-01T02:03:38;18.87;;;10.30;;
15486;SDS011;7845;53.698;10.078;2022-08-01T02:06:11;14.73;;;9.40;;
15486;SDS011;7845;53.698;10.078;2022-08-01T02:08:38;11.43;;;7.97;;
15486;SDS011;7845;53.698;10.078;2022-08-01T02:11:08;8.50;;;7.10;;
15486;SDS011;7845;53.698;10.078;2022-08-01T02:13:43;13.00;;;8.40;;
15486;SDS011;7845;53.698;10.078;2022-08-01T02:16:15;9.47;;;6.97;;
15486;SDS011;7845;53.698;10.078;2022-08-01T02:18:41;8.80;;;6.30;;
15486;SDS011;7845;53.698;10.078;2022-08-01T02:21:08;9.23;;;7.57;;
15486;SDS011;7845;53.698;10.078;2022-08-01T02:23:37;11.13;;;8.80;;
15486;SDS011;7845;53.698;10.078;2022-08-01T02:26:06;8.93;;;7.43;;
15486;SDS011;7845;53.698;10.078;2022-08-01T02:28:36;8.63;;;7.13;;
15486;SDS011;7845;53.698;10.078;2022-08-01T02:31:06;11.20;;;8.60;;
15486;SDS011;7845;53.698;10.078;2022-08-01T02:33:37;10.83;;;8.50;;
15486;SDS011;7845;53.698;10.078;2022-08-01T02:36:06;9.57;;;6.60;;
15486;SDS011;7845;53.698;10.078;2022-08-01T02:38:33;11.30;;;7.20;;
15486;SDS011;7845;53.698;10.078;2022-08-01T02:41:07;10.40;;;7.07;;
15486;SDS011;7845;53.698;10.078;2022-08-01T02:43:35;10.67;;;7.00;;
15486;SDS011;7845;53.698;10.078;2022-08-01T02:46:03;9.57;;;7.03;;
15486;SDS011;7845;53.698;10.078;2022-08-01T02:48:31;10.00;;;8.10;;
15486;SDS011;7845;53.698;10.078;2022-08-01T02:51:00;8.87;;;6.53;;
15486;SDS011;7845;53.698;10.078;2022-08-01T02:53:27;10.03;;;7.50;;
15486;SDS011;7845;53.698;10.078;2022-08-01T02:55:57;8.47;;;6.20;;
15486;SDS011;7845;53.698;10.078;2022-08-01T02:58:24;10.03;;;7.90;;
15486;SDS011;7845;53.698;10.078;2022-08-01T03:00:51;7.73;;;6.10;;
15486;SDS011;7845;53.698;10.078;2022-08-01T03:03:17;8.57;;;7.10;;
15486;SDS011;7845;53.698;10.078;2022-08-01T03:05:43;8.00;;;6.00;;
15486;SDS011;7845;53.698;10.078;2022-08-01T03:08:09;11.37;;;7.70;;
15486;SDS011;7845;53.698;10.078;2022-08-01T03:10:36;8.43;;;6.13;;
15486;SDS011;7845;53.698;10.078;2022-08-01T03:13:04;8.03;;;6.17;;
15486;SDS011;7845;53.698;10.078;2022-08-01T03:15:34;7.47;;;6.13;;
15486;SDS011;7845;53.698;10.078;2022-08-01T03:18:02;10.03;;;8.23;;
15486;SDS011;7845;53.698;10.078;2022-08-01T03:20:30;9.80;;;6.67;;
15486;SDS011;7845;53.698;10.078;2022-08-01T03:22:58;12.10;;;8.43;;
15486;SDS011;7845;53.698;10.078;2022-08-01T03:25:26;9.47;;;7.00;;
15486;SDS011;7845;53.698;10.078;2022-08-01T03:27:57;12.77;;;9.03;;
15486;SDS011;7845;53.698;10.078;2022-08-01T03:30:29;9.63;;;8.27;;
15486;SDS011;7845;53.698;10.078;2022-08-01T03:33:06;10.13;;;8.97;;
15486;SDS011;7845;53.698;10.078;2022-08-01T03:35:47;11.07;;;9.17;;
15486;SDS011;7845;53.698;10.078;2022-08-01T03:38:22;9.90;;;8.50;;
15486;SDS011;7845;53.698;10.078;2022-08-01T03:40:52;11.03;;;9.07;;
15486;SDS011;7845;53.698;10.078;2022-08-01T03:43:22;11.63;;;9.03;;
15486;SDS011;7845;53.698;10.078;2022-08-01T03:45:50;12.20;;;10.20;;
15486;SDS011;7845;53.698;10.078;2022-08-01T03:48:17;12.30;;;10.40;;
15486;SDS011;7845;53.698;10.078;2022-08-01T03:50:47;13.17;;;10.73;;
15486;SDS011;7845;53.698;10.078;2022-08-01T03:53:16;10.27;;;8.90;;
15486;SDS011;7845;53.698;10.078;2022-08-01T03:55:47;9.00;;;8.10;;
15486;SDS011;7845;53.698;10.078;2022-08-01T03:58:14;12.07;;;9.00;;
15486;SDS011;7845;53.698;10.078;2022-08-01T04:00:40;9.60;;;8.60;;
15486;SDS011;7845;53.698;10.078;2022-08-01T04:03:07;13.00;;;8.70;;
15486;SDS011;7845;53.698;10.078;2022-08-01T04:05:33;9.20;;;6.87;;
15486;SDS011;7845;53.698;10.078;2022-08-01T04:07:59;10.83;;;7.97;;
15486;SDS011;7845;53.698;10.078;2022-08-01T04:10:26;10.60;;;8.93;;
15486;SDS011;7845;53.698;10.078;2022-08-01T04:12:52;8.60;;;6.83;;
15486;SDS011;7845;53.698;10.078;2022-08-01T04:15:17;8.77;;;7.07;;
15486;SDS011;7845;53.698;10.078;2022-08-01T04:17:43;7.50;;;6.47;;
15486;SDS011;7845;53.698;10.078;2022-08-01T04:20:08;9.60;;;6.00;;
15486;SDS011;7845;53.698;10.078;2022-08-01T04:22:36;8.17;;;5.90;;
15486;SDS011;7845;53.698;10.078;2022-08-01T04:25:02;10.03;;;7.00;;
15486;SDS011;7845;53.698;10.078;2022-08-01T04:27:36;7.67;;;6.33;;
15486;SDS011;7845;53.698;10.078;2022-08-01T04:30:02;11.50;;;6.70;;
15486;SDS011;7845;53.698;10.078;2022-08-01T04:32:29;7.77;;;5.90;;
15486;SDS011;7845;53.698;10.078;2022-08-01T04:34:59;10.33;;;7.93;;
15486;SDS011;7845;53.698;10.078;2022-08-01T04:37:27;9.50;;;6.80;;
15486;SDS011;7845;53.698;10.078;2022-08-01T04:39:53;12.87;;;8.57;;
15486;SDS011;7845;53.698;10.078;2022-08-01T04:42:19;8.83;;;6.80;;
15486;SDS011;7845;53.698;10.078;2022-08-01T04:44:45;8.80;;;7.67;;
15486;SDS011;7845;53.698;10.078;2022-08-01T04:47:10;9.17;;;7.10;;
15486;SDS011;7845;53.698;10.078;2022-08-01T04:49:36;8.80;;;6.80;;
15486;SDS011;7845;53.698;10.078;2022-08-01T04:52:02;9.13;;;7.63;;
15486;SDS011;7845;53.698;10.078;2022-08-01T04:54:29;8.07;;;6.70;;
15486;SDS011;7845;53.698;10.078;2022-08-01T04:56:58;7.67;;;6.63;;
15486;SDS011;7845;53.698;10.078;2022-08-01T04:59:32;9.47;;;6.63;;
15486;SDS011;7845;53.698;10.078;2022-08-01T05:02:09;6.80;;;5.80;;
15486;SDS011;7845;53.698;10.078;2022-08-01T05:04:34;8.53;;;6.17;;
15486;SDS011;7845;53.698;10.078;2022-08-01T05:07:00;7.53;;;4.27;;
15486;SDS011;7845;53.698;10.078;2022-08-01T05:09:26;5.77;;;4.13;;
15486;SDS011;7845;53.698;10.078;2022-08-01T05:11:52;5.30;;;3.07;;
15486;SDS011;7845;53.698;10.078;2022-08-01T05:14:18;6.67;;;3.20;;
15486;SDS011;7845;53.698;10.078;2022-08-01T05:16:44;5.17;;;3.20;;
15486;SDS011;7845;53.698;10.078;2022-08-01T05:19:09;5.03;;;2.60;;
15486;SDS011;7845;53.698;10.078;2022-08-01T05:21:35;3.70;;;2.00;;
15486;SDS011;7845;53.698;10.078;2022-08-01T05:24:00;5.27;;;2.10;;
15486;SDS011;7845;53.698;10.078;2022-08-01T05:26:25;5.37;;;2.70;;
15486;SDS011;7845;53.698;10.078;2022-08-01T05:28:51;3.80;;;2.30;;
15486;SDS011;7845;53.698;10.078;2022-08-01T05:31:16;4.10;;;2.30;;
15486;SDS011;7845;53.698;10.078;2022-08-01T05:33:41;5.23;;;2.90;;
15486;SDS011;7845;53.698;10.078;2022-08-01T05:36:07;4.73;;;2.43;;
15486;SDS011;7845;53.698;10.078;2022-08-01T05:38:32;4.33;;;2.50;;
15486;SDS011;7845;53.698;10.078;2022-08-01T05:40:57;5.00;;;3.10;;
15486;SDS011;7845;53.698;10.078;2022-08-01T05:43:23;5.30;;;2.87;;
15486;SDS011;7845;53.698;10.078;2022-08-01T05:45:48;4.10;;;2.03;;
15486;SDS011;7845;53.698;10.078;2022-08-01T05:48:13;5.60;;;2.87;;
15486;SDS011;7845;53.698;10.078;2022-08-01T05:50:39;4.50;;;2.87;;
15486;SDS011;7845;53.698;10.078;2022-08-01T05:53:04;4.67;;;2.87;;
15486;SDS011;7845;53.698;10.078;2022-08-01T05:55:30;5.97;;;3.07;;
15486;SDS011;7845;53.698;10.078;2022-08-01T05:57:55;6.03;;;2.73;;
15486;SDS011;7845;53.698;10.078;2022-08-01T06:00:20;7.00;;;2.83;;
15486;SDS011;7845;53.698;10.078;2022-08-01T06:02:46;5.90;;;2.50;;
15486;SDS011;7845;53.698;10.078;2022-08-01T06:05:12;6.70;;;2.50;;
15486;SDS011;7845;53.698;10.078;2022-08-01T06:07:37;4.90;;;2.37;;
15486;SDS011;7845;53.698;10.078;2022-08-01T06:10:04;7.17;;;2.93;;
15486;SDS011;7845;53.698;10.078;2022-08-01T06:12:34;9.33;;;3.00;;
15486;SDS011;7845;53.698;10.078;2022-08-01T06:15:00;6.23;;;2.53;;
15486;SDS011;7845;53.698;10.078;2022-08-01T06:17:25;6.93;;;3.33;;
15486;SDS011;7845;53.698;10.078;2022-08-01T06:19:51;6.63;;;2.77;;
15486;SDS011;7845;53.698;10.078;2022-08-01T06:22:16;7.30;;;2.97;;
15486;SDS011;7845;53.698;10.078;2022-08-01T06:24:41;5.03;;;2.63;;
15486;SDS011;7845;53.698;10.078;2022-08-01T06:27:06;5.33;;;2.53;;
15486;SDS011;7845;53.698;10.078;2022-08-01T06:29:32;6.37;;;3.10;;
15486;SDS011;7845;53.698;10.078;2022-08-01T06:31:57;5.80;;;2.70;;
15486;SDS011;7845;53.698;10.078;2022-08-01T06:34:23;8.00;;;2.67;;
15486;SDS011;7845;53.698;10.078;2022-08-01T06:36:49;7.70;;;2.73;;
15486;SDS011;7845;53.698;10.078;2022-08-01T06:39:14;10.40;;;3.17;;
15486;SDS011;7845;53.698;10.078;2022-08-01T06:41:39;8.93;;;2.93;;
15486;SDS011;7845;53.698;10.078;2022-08-01T06:44:06;6.83;;;2.70;;
15486;SDS011;7845;53.698;10.078;2022-08-01T06:46:32;7.63;;;2.70;;
15486;SDS011;7845;53.698;10.078;2022-08-01T06:48:58;6.80;;;2.57;;
15486;SDS011;7845;53.698;10.078;2022-08-01T06:51:23;6.57;;;2.70;;
15486;SDS011;7845;53.698;10.078;2022-08-01T06:53:48;4.77;;;2.50;;
15486;SDS011;7845;53.698;10.078;2022-08-01T06:56:14;13.13;;;4.13;;
15486;SDS011;7845;53.698;10.078;2022-08-01T06:58:39;5.40;;;2.23;;
15486;SDS011;7845;53.698;10.078;2022-08-01T07:01:05;7.80;;;2.80;;
15486;SDS011;7845;53.698;10.078;2022-08-01T07:03:32;5.00;;;2.40;;
15486;SDS011;7845;53.698;10.078;2022-08-01T07:05:58;11.33;;;3.83;;
15486;SDS011;7845;53.698;10.078;2022-08-01T07:08:23;9.30;;;4.03;;
15486;SDS011;7845;53.698;10.078;2022-08-01T07:10:48;11.50;;;4.37;;
15486;SDS011;7845;53.698;10.078;2022-08-01T07:13:13;10.23;;;5.00;;
15486;SDS011;7845;53.698;10.078;2022-08-01T07:15:42;8.83;;;4.40;;
15486;SDS011;7845;53.698;10.078;2022-08-01T07:18:08;10.67;;;4.57;;
15486;SDS011;7845;53.698;10.078;2022-08-01T07:20:33;9.43;;;4.23;;
15486;SDS011;7845;53.698;10.078;2022-08-01T07:22:58;11.67;;;4.40;;
15486;SDS011;7845;53.698;10.078;2022-08-01T07:25:24;11.13;;;3.63;;
15486;SDS011;7845;53.698;10.078;2022-08-01T07:27:49;11.40;;;4.50;;
15486;SDS011;7845;53.698;10.078;2022-08-01T07:30:14;9.23;;;4.20;;
15486;SDS011;7845;53.698;10.078;2022-08-01T07:32:40;7.60;;;3.80;;
15486;SDS011;7845;53.698;10.078;2022-08-01T07:35:05;13.57;;;3.60;;
15486;SDS011;7845;53.698;10.078;2022-08-01T07:37:31;9.37;;;3.80;;
15486;SDS011;7845;53.698;10.078;2022-08-01T07:39:56;13.23;;;4.03;;
15486;SDS011;7845;53.698;10.078;2022-08-01T07:42:21;9.80;;;3.87;;
15486;SDS011;7845;53.698;10.078;2022-08-01T07:44:46;7.80;;;3.43;;
15486;SDS011;7845;53.698;10.078;2022-08-01T07:47:12;10.83;;;3.97;;
15486;SDS011;7845;53.698;10.078;2022-08-01T07:49:37;15.37;;;4.07;;
15486;SDS011;7845;53.698;10.078;2022-08-01T07:52:04;12.20;;;3.43;;
15486;SDS011;7845;53.698;10.078;2022-08-01T07:54:29;6.10;;;3.30;;
15486;SDS011;7845;53.698;10.078;2022-08-01T07:56:55;10.23;;;3.37;;
15486;SDS011;7845;53.698;10.078;2022-08-01T07:59:21;9.87;;;4.50;;
15486;SDS011;7845;53.698;10.078;2022-08-01T08:01:47;12.67;;;3.80;;
15486;SDS011;7845;53.698;10.078;2022-08-01T08:04:13;11.23;;;3.50;;
15486;SDS011;7845;53.698;10.078;2022-08-01T08:06:39;10.53;;;3.87;;
15486;SDS011;7845;53.698;10.078;2022-08-01T08:09:06;8.13;;;3.53;;
15486;SDS011;7845;53.698;10.078;2022-08-01T08:11:32;11.13;;;4.47;;
15486;SDS011;7845;53.698;10.078;2022-08-01T08:13:57;10.20;;;4.70;;
15486;SDS011;7845;53.698;10.078;2022-08-01T08:16:22;6.70;;;4.07;;
15486;SDS011;7845;53.698;10.078;2022-08-01T08:18:48;8.20;;;4.00;;
15486;SDS011;7845;53.698;10.078;2022-08-01T08:21:13;7.47;;;2.83;;
15486;SDS011;7845;53.698;10.078;2022-08-01T08:23:38;7.30;;;3.37;;
15486;SDS011;7845;53.698;10.078;2022-08-01T08:26:22;9.67;;;3.50;;
15486;SDS011;7845;53.698;10.078;2022-08-01T08:28:49;9.80;;;4.30;;
15486;SDS011;7845;53.698;10.078;2022-08-01T08:31:14;9.50;;;5.70;;
15486;SDS011;7845;53.698;10.078;2022-08-01T08:33:39;10.40;;;4.47;;
15486;SDS011;7845;53.698;10.078;2022-08-01T08:36:05;14.03;;;5.50;;
15486;SDS011;7845;53.698;10.078;2022-08-01T08:38:30;13.60;;;5.80;;
15486;SDS011;7845;53.698;10.078;2022-08-01T08:40:56;13.40;;;4.97;;
15486;SDS011;7845;53.698;10.078;2022-08-01T08:43:21;9.07;;;4.50;;
15486;SDS011;7845;53.698;10.078;2022-08-01T08:45:49;12.23;;;4.50;;
15486;SDS011;7845;53.698;10.078;2022-08-01T08:48:15;10.70;;;4.53;;
15486;SDS011;7845;53.698;10.078;2022-08-01T08:50:43;13.17;;;4.40;;
15486;SDS011;7845;53.698;10.078;2022-08-01T08:53:11;6.70;;;2.80;;
15486;SDS011;7845;53.698;10.078;2022-08-01T08:55:40;5.63;;;3.27;;
15486;SDS011;7845;53.698;10.078;2022-08-01T08:58:09;6.40;;;2.83;;
15486;SDS011;7845;53.698;10.078;2022-08-01T09:00:37;8.40;;;3.40;;
15486;SDS011;7845;53.698;10.078;2022-08-01T09:03:04;8.17;;;2.50;;
15486;SDS011;7845;53.698;10.078;2022-08-01T09:05:29;8.17;;;2.70;;
15486;SDS011;7845;53.698;10.078;2022-08-01T09:07:54;7.67;;;2.60;;
15486;SDS011;7845;53.698;10.078;2022-08-01T09:10:20;6.50;;;2.80;;
15486;SDS011;7845;53.698;10.078;2022-08-01T09:15:50;6.63;;;2.10;;
15486;SDS011;7845;53.698;10.078;2022-08-01T09:18:25;6.63;;;2.53;;
15486;SDS011;7845;53.698;10.078;2022-08-01T09:21:09;6.10;;;2.27;;
15486;SDS011;7845;53.698;10.078;2022-08-01T09:23:44;9.97;;;2.93;;
15486;SDS011;7845;53.698;10.078;2022-08-01T09:26:12;10.47;;;2.50;;
15486;SDS011;7845;53.698;10.078;2022-08-01T09:28:39;8.77;;;3.40;;
15486;SDS011;7845;53.698;10.078;2022-08-01T09:31:05;6.33;;;2.60;;
15486;SDS011;7845;53.698;10.078;2022-08-01T09:34:06;7.30;;;2.93;;
15486;SDS011;7845;53.698;10.078;2022-08-01T09:39:20;8.20;;;2.70;;
15486;SDS011;7845;53.698;10.078;2022-08-01T09:41:51;8.67;;;3.20;;
15486;SDS011;7845;53.698;10.078;2022-08-01T09:44:17;10.17;;;2.90;;
15486;SDS011;7845;53.698;10.078;2022-08-01T09:46:50;6.83;;;2.53;;
15486;SDS011;7845;53.698;10.078;2022-08-01T09:49:29;8.90;;;3.17;;
15486;SDS011;7845;53.698;10.078;2022-08-01T09:52:09;10.70;;;3.50;;
15486;SDS011;7845;53.698;10.078;2022-08-01T09:54:35;7.30;;;2.90;;
15486;SDS011;7845;53.698;10.078;2022-08-01T09:57:34;8.00;;;2.70;;
15486;SDS011;7845;53.698;10.078;2022-08-01T09:59:54;7.37;;;2.47;;
15486;SDS011;7845;53.698;10.078;2022-08-01T10:02:31;9.50;;;3.50;;
15486;SDS011;7845;53.698;10.078;2022-08-01T10:05:01;12.30;;;3.73;;
15486;SDS011;7845;53.698;10.078;2022-08-01T10:07:28;9.00;;;2.13;;
15486;SDS011;7845;53.698;10.078;2022-08-01T10:09:53;7.47;;;2.60;;
15486;SDS011;7845;53.698;10.078;2022-08-01T10:12:20;9.37;;;2.53;;
15486;SDS011;7845;53.698;10.078;2022-08-01T10:14:49;11.70;;;2.93;;
15486;SDS011;7845;53.698;10.078;2022-08-01T10:17:17;8.00;;;2.50;;
15486;SDS011;7845;53.698;10.078;2022-08-01T10:19:43;10.93;;;2.60;;
15486;SDS011;7845;53.698;10.078;2022-08-01T10:22:11;7.63;;;3.00;;
15486;SDS011;7845;53.698;10.078;2022-08-01T10:24:42;8.33;;;2.63;;
15486;SDS011;7845;53.698;10.078;2022-08-01T10:27:11;10.40;;;2.30;;
15486;SDS011;7845;53.698;10.078;2022-08-01T10:29:57;7.10;;;2.10;;
15486;SDS011;7845;53.698;10.078;2022-08-01T10:32:33;6.90;;;2.00;;
15486;SDS011;7845;53.698;10.078;2022-08-01T10:35:00;5.10;;;1.70;;
15486;SDS011;7845;53.698;10.078;2022-08-01T10:37:25;8.73;;;2.83;;
15486;SDS011;7845;53.698;10.078;2022-08-01T10:39:51;6.67;;;2.20;;
15486;SDS011;7845;53.698;10.078;2022-08-01T10:42:18;6.77;;;2.13;;
15486;SDS011;7845;53.698;10.078;2022-08-01T10:44:43;5.33;;;1.90;;
15486;SDS011;7845;53.698;10.078;2022-08-01T10:47:13;13.77;;;2.40;;
15486;SDS011;7845;53.698;10.078;2022-08-01T10:49:52;6.27;;;2.13;;
15486;SDS011;7845;53.698;10.078;2022-08-01T10:52:25;8.77;;;3.53;;
15486;SDS011;7845;53.698;10.078;2022-08-01T10:55:00;12.53;;;2.50;;
15486;SDS011;7845;53.698;10.078;2022-08-01T10:57:42;6.20;;;1.87;;
15486;SDS011;7845;53.698;10.078;2022-08-01T11:00:10;8.40;;;2.00;;
15486;SDS011;7845;53.698;10.078;2022-08-01T11:02:42;7.83;;;2.00;;
15486;SDS011;7845;53.698;10.078;2022-08-01T11:05:23;7.83;;;2.53;;
15486;SDS011;7845;53.698;10.078;2022-08-01T11:07:53;8.27;;;2.23;;
15486;SDS011;7845;53.698;10.078;2022-08-01T11:10:29;8.67;;;2.10;;
15486;SDS011;7845;53.698;10.078;2022-08-01T11:13:01;8.10;;;2.57;;
15486;SDS011;7845;53.698;10.078;2022-08-01T11:15:30;9.60;;;2.87;;
15486;SDS011;7845;53.698;10.078;2022-08-01T11:17:56;6.33;;;2.03;;
15486;SDS011;7845;53.698;10.078;2022-08-01T11:20:25;4.83;;;1.63;;
15486;SDS011;7845;53.698;10.078;2022-08-01T11:30:52;5.60;;;1.70;;
15486;SDS011;7845;53.698;10.078;2022-08-01T11:38:38;6.70;;;2.10;;
15486;SDS011;7845;53.698;10.078;2022-08-01T11:52:14;8.30;;;2.30;;
15486;SDS011;7845;53.698;10.078;2022-08-01T11:54:45;6.23;;;1.77;;
15486;SDS011;7845;53.698;10.078;2022-08-01T11:57:14;6.23;;;1.80;;
15486;SDS011;7845;53.698;10.078;2022-08-01T11:59:48;7.77;;;1.77;;
15486;SDS011;7845;53.698;10.078;2022-08-01T12:02:18;6.17;;;1.43;;
15486;SDS011;7845;53.698;10.078;2022-08-01T12:07:27;6.77;;;1.77;;
15486;SDS011;7845;53.698;10.078;2022-08-01T12:09:59;7.80;;;2.00;;
15486;SDS011;7845;53.698;10.078;2022-08-01T12:12:30;6.90;;;1.60;;
15486;SDS011;7845;53.698;10.078;2022-08-01T12:14:57;5.77;;;1.83;;
15486;SDS011;7845;53.698;10.078;2022-08-01T12:17:31;6.70;;;1.77;;
15486;SDS011;7845;53.698;10.078;2022-08-01T12:19:58;5.07;;;1.30;;
15486;SDS011;7845;53.698;10.078;2022-08-01T12:22:24;7.23;;;1.80;;
15486;SDS011;7845;53.698;10.078;2022-08-01T12:24:50;6.70;;;2.13;;
15486;SDS011;7845;53.698;10.078;2022-08-01T12:27:28;7.30;;;2.30;;
15486;SDS011;7845;53.698;10.078;2022-08-01T12:29:55;4.97;;;1.57;;
15486;SDS011;7845;53.698;10.078;2022-08-01T12:32:30;7.60;;;1.93;;
15486;SDS011;7845;53.698;10.078;2022-08-01T12:35:01;8.00;;;2.20;;
15486;SDS011;7845;53.698;10.078;2022-08-01T12:37:28;7.37;;;2.00;;
15486;SDS011;7845;53.698;10.078;2022-08-01T12:39:53;6.47;;;1.80;;
15486;SDS011;7845;53.698;10.078;2022-08-01T12:42:19;9.43;;;1.90;;
15486;SDS011;7845;53.698;10.078;2022-08-01T12:44:45;6.30;;;1.83;;
15486;SDS011;7845;53.698;10.078;2022-08-01T12:47:13;6.90;;;2.37;;
15486;SDS011;7845;53.698;10.078;2022-08-01T12:49:40;8.53;;;1.73;;
15486;SDS011;7845;53.698;10.078;2022-08-01T12:52:07;6.67;;;1.63;;
15486;SDS011;7845;53.698;10.078;2022-08-01T12:57:24;6.07;;;1.67;;
15486;SDS011;7845;53.698;10.078;2022-08-01T12:59:52;6.73;;;1.50;;
15486;SDS011;7845;53.698;10.078;2022-08-01T13:02:18;8.37;;;1.70;;
15486;SDS011;7845;53.698;10.078;2022-08-01T13:04:50;5.77;;;1.50;;
15486;SDS011;7845;53.698;10.078;2022-08-01T13:07:18;5.97;;;1.67;;
15486;SDS011;7845;53.698;10.078;2022-08-01T13:09:50;4.77;;;1.37;;
15486;SDS011;7845;53.698;10.078;2022-08-01T13:12:16;5.27;;;1.60;;
15486;SDS011;7845;53.698;10.078;2022-08-01T13:14:41;6.43;;;1.97;;
15486;SDS011;7845;53.698;10.078;2022-08-01T13:17:07;4.73;;;1.60;;
15486;SDS011;7845;53.698;10.078;2022-08-01T13:19:42;6.53;;;1.10;;
15486;SDS011;7845;53.698;10.078;2022-08-01T13:22:08;6.47;;;1.53;;
15486;SDS011;7845;53.698;10.078;2022-08-01T13:24:33;7.50;;;1.43;;
15486;SDS011;7845;53.698;10.078;2022-08-01T13:27:00;6.23;;;1.63;;
15486;SDS011;7845;53.698;10.078;2022-08-01T13:32:20;8.97;;;2.43;;
15486;SDS011;7845;53.698;10.078;2022-08-01T13:34:46;7.07;;;1.47;;
15486;SDS011;7845;53.698;10.078;2022-08-01T13:37:11;7.37;;;1.67;;
15486;SDS011;7845;53.698;10.078;2022-08-01T13:39:37;6.23;;;1.90;;
15486;SDS011;7845;53.698;10.078;2022-08-01T13:42:08;4.93;;;1.30;;
15486;SDS011;7845;53.698;10.078;2022-08-01T13:44:34;5.60;;;1.50;;
15486;SDS011;7845;53.698;10.078;2022-08-01T13:47:00;7.67;;;1.70;;
15486;SDS011;7845;53.698;10.078;2022-08-01T13:49:27;6.80;;;1.50;;
15486;SDS011;7845;53.698;10.078;2022-08-01T13:51:52;8.63;;;1.50;;
15486;SDS011;7845;53.698;10.078;2022-08-01T13:54:17;7.70;;;1.90;;
15486;SDS011;7845;53.698;10.078;2022-08-01T13:56:43;6.37;;;1.50;;
15486;SDS011;7845;53.698;10.078;2022-08-01T13:59:09;9.70;;;2.13;;
15486;SDS011;7845;53.698;10.078;2022-08-01T14:01:34;6.20;;;1.50;;
15486;SDS011;7845;53.698;10.078;2022-08-01T14:04:00;4.60;;;1.60;;
15486;SDS011;7845;53.698;10.078;2022-08-01T14:06:26;5.87;;;1.53;;
15486;SDS011;7845;53.698;10.078;2022-08-01T14:08:51;5.67;;;1.47;;
15486;SDS011;7845;53.698;10.078;2022-08-01T14:11:17;6.90;;;1.40;;
15486;SDS011;7845;53.698;10.078;2022-08-01T14:13:43;7.27;;;1.73;;
15486;SDS011;7845;53.698;10.078;2022-08-01T14:16:08;7.50;;;1.43;;
15486;SDS011;7845;53.698;10.078;2022-08-01T14:18:34;7.67;;;1.60;;
15486;SDS011;7845;53.698;10.078;2022-08-01T14:20:59;8.53;;;2.27;;
15486;SDS011;7845;53.698;10.078;2022-08-01T14:23:25;8.97;;;1.60;;
15486;SDS011;7845;53.698;10.078;2022-08-01T14:25:51;7.10;;;1.60;;
15486;SDS011;7845;53.698;10.078;2022-08-01T14:28:16;5.83;;;1.77;;
15486;SDS011;7845;53.698;10.078;2022-08-01T14:30:42;7.27;;;1.60;;
15486;SDS011;7845;53.698;10.078;2022-08-01T14:33:07;8.70;;;2.67;;
15486;SDS011;7845;53.698;10.078;2022-08-01T14:35:33;8.23;;;1.60;;
15486;SDS011;7845;53.698;10.078;2022-08-01T14:37:59;8.33;;;2.00;;
15486;SDS011;7845;53.698;10.078;2022-08-01T14:40:24;5.93;;;1.80;;
15486;SDS011;7845;53.698;10.078;2022-08-01T14:42:49;10.87;;;2.20;;
15486;SDS011;7845;53.698;10.078;2022-08-01T14:45:15;7.83;;;1.70;;
15486;SDS011;7845;53.698;10.078;2022-08-01T14:47:40;8.73;;;2.10;;
15486;SDS011;7845;53.698;10.078;2022-08-01T14:50:08;5.70;;;1.73;;
15486;SDS011;7845;53.698;10.078;2022-08-01T14:52:36;9.70;;;2.10;;
15486;SDS011;7845;53.698;10.078;2022-08-01T14:55:03;4.60;;;1.57;;
15486;SDS011;7845;53.698;10.078;2022-08-01T14:57:30;9.50;;;2.00;;
15486;SDS011;7845;53.698;10.078;2022-08-01T14:59:56;8.63;;;1.87;;
15486;SDS011;7845;53.698;10.078;2022-08-01T15:02:22;6.20;;;2.00;;
15486;SDS011;7845;53.698;10.078;2022-08-01T15:04:47;6.83;;;1.50;;
15486;SDS011;7845;53.698;10.078;2022-08-01T15:07:13;6.40;;;2.73;;
15486;SDS011;7845;53.698;10.078;2022-08-01T15:09:40;5.60;;;1.47;;
15486;SDS011;7845;53.698;10.078;2022-08-01T15:12:05;5.63;;;1.70;;
15486;SDS011;7845;53.698;10.078;2022-08-01T15:14:31;7.23;;;2.07;;
15486;SDS011;7845;53.698;10.078;2022-08-01T15:19:50;9.53;;;2.30;;
15486;SDS011;7845;53.698;10.078;2022-08-01T15:22:17;6.33;;;1.90;;
15486;SDS011;7845;53.698;10.078;2022-08-01T15:24:43;7.20;;;1.70;;
15486;SDS011;7845;53.698;10.078;2022-08-01T15:27:09;10.20;;;1.87;;
15486;SDS011;7845;53.698;10.078;2022-08-01T15:29:35;7.27;;;1.97;;
15486;SDS011;7845;53.698;10.078;2022-08-01T15:32:02;7.90;;;2.57;;